createdAt,value
2023-03-19T00:00:01.724Z,948.12
2023-03-19T00:00:12.726Z,948.12
2023-03-19T00:00:23.764Z,948.11
2023-03-19T00:00:35.724Z,948.11
2023-03-19T00:00:46.731Z,948.11
2023-03-19T00:00:57.708Z,948.11
2023-03-19T00:01:08.736Z,948.10
2023-03-19T00:01:19.751Z,948.10
2023-03-19T00:01:30.747Z,948.09
2023-03-19T00:01:41.809Z,948.08
2023-03-19T00:01:52.763Z,948.07
2023-03-19T00:02:16.566Z,948.07
2023-03-19T00:02:18.247Z,948.06
2023-03-19T00:02:27.754Z,948.05
2023-03-19T00:02:39.827Z,948.05
2023-03-19T00:02:50.842Z,948.05
2023-03-19T00:03:01.855Z,948.04
2023-03-19T00:03:12.778Z,948.04
2023-03-19T00:03:23.809Z,948.04
2023-03-19T00:03:34.785Z,948.04
2023-03-19T00:03:45.819Z,948.04
2023-03-19T00:03:56.736Z,948.04
2023-03-19T00:04:07.713Z,948.04
2023-03-19T00:04:18.707Z,948.04
2023-03-19T00:04:29.712Z,948.04
2023-03-19T00:04:40.706Z,948.05
2023-03-19T00:04:51.727Z,948.04
2023-03-19T00:05:03.722Z,948.04
2023-03-19T00:05:14.732Z,948.04
2023-03-19T00:05:25.722Z,948.04
2023-03-19T00:05:36.743Z,948.04
2023-03-19T00:05:47.741Z,948.03
2023-03-19T00:05:58.739Z,948.03
2023-03-19T00:06:09.730Z,948.03
2023-03-19T00:06:20.721Z,948.02
2023-03-19T00:06:31.725Z,948.02
2023-03-19T00:06:43.738Z,948.02
2023-03-19T00:06:54.736Z,948.02
2023-03-19T00:07:06.728Z,948.01
2023-03-19T00:07:17.723Z,948.01
2023-03-19T00:07:28.743Z,948.01
2023-03-19T00:07:39.736Z,948.01
2023-03-19T00:07:50.741Z,948.01
2023-03-19T00:08:02.730Z,948.01
2023-03-19T00:08:13.735Z,948.01
2023-03-19T00:08:24.743Z,948.01
2023-03-19T00:08:36.769Z,948.01
2023-03-19T00:08:48.721Z,948.02
2023-03-19T00:08:59.703Z,948.02
2023-03-19T00:09:10.780Z,948.02
2023-03-19T00:09:22.743Z,948.02
2023-03-19T00:09:33.721Z,948.02
2023-03-19T00:09:44.727Z,948.03
2023-03-19T00:09:55.731Z,948.03
2023-03-19T00:10:07.734Z,948.03
2023-03-19T00:10:18.746Z,948.03
2023-03-19T00:10:29.731Z,948.03
2023-03-19T00:10:40.744Z,948.03
2023-03-19T00:10:51.737Z,948.03
2023-03-19T00:11:02.750Z,948.03
2023-03-19T00:11:14.728Z,948.03
2023-03-19T00:11:25.727Z,948.03
2023-03-19T00:11:36.752Z,948.03
2023-03-19T00:11:47.746Z,948.02
2023-03-19T00:11:58.737Z,948.02
2023-03-19T00:12:10.868Z,948.02
2023-03-19T00:12:22.734Z,948.01
2023-03-19T00:12:33.730Z,948.01
2023-03-19T00:12:44.753Z,948.01
2023-03-19T00:12:55.744Z,948.00
2023-03-19T00:13:06.745Z,948.00
2023-03-19T00:13:18.736Z,948.00
2023-03-19T00:13:29.748Z,948.00
2023-03-19T00:13:40.755Z,948.00
2023-03-19T00:13:52.733Z,948.01
2023-03-19T00:14:03.720Z,948.01
2023-03-19T00:14:14.714Z,948.02
2023-03-19T00:14:25.779Z,948.02
2023-03-19T00:14:36.755Z,948.03
2023-03-19T00:14:47.761Z,948.02
2023-03-19T00:14:58.761Z,948.02
2023-03-19T00:15:10.720Z,948.02
2023-03-19T00:15:21.691Z,948.01
2023-03-19T00:15:33.147Z,948.01
2023-03-19T00:15:44.781Z,948.01
2023-03-19T00:15:56.726Z,948.01
2023-03-19T00:16:07.741Z,948.01
2023-03-19T00:16:19.751Z,948.02
2023-03-19T00:16:31.759Z,948.02
2023-03-19T00:16:43.762Z,948.02
2023-03-19T00:16:55.800Z,948.03
2023-03-19T00:17:06.726Z,948.03
2023-03-19T00:17:17.717Z,948.03
2023-03-19T00:17:28.746Z,948.02
2023-03-19T00:17:39.714Z,948.02
2023-03-19T00:17:50.738Z,948.02
2023-03-19T00:18:02.703Z,948.02
2023-03-19T00:18:13.786Z,948.02
2023-03-19T00:18:24.733Z,948.01
2023-03-19T00:18:35.738Z,948.01
2023-03-19T00:18:46.739Z,948.01
2023-03-19T00:18:57.703Z,948.01
2023-03-19T00:19:08.714Z,948.00
2023-03-19T00:19:19.708Z,948.00
2023-03-19T00:19:30.695Z,948.00
2023-03-19T00:19:41.787Z,948.01
2023-03-19T00:19:53.750Z,948.01
2023-03-19T00:20:04.745Z,948.01
2023-03-19T00:20:15.727Z,948.01
2023-03-19T00:20:26.733Z,948.02
2023-03-19T00:20:37.746Z,948.02
2023-03-19T00:20:48.744Z,948.02
2023-03-19T00:20:59.749Z,948.02
2023-03-19T00:21:11.744Z,948.02
2023-03-19T00:21:25.808Z,948.02
2023-03-19T00:21:34.745Z,948.01
2023-03-19T00:21:58.118Z,948.01
2023-03-19T00:21:58.821Z,948.01
2023-03-19T00:22:10.788Z,948.01
2023-03-19T00:22:22.734Z,948.01
2023-03-19T00:22:33.735Z,948.01
2023-03-19T00:22:44.743Z,948.01
2023-03-19T00:22:55.749Z,948.01
2023-03-19T00:23:07.760Z,948.01
2023-03-19T00:23:18.737Z,948.01
2023-03-19T00:23:29.730Z,948.01
2023-03-19T00:23:40.724Z,948.01
2023-03-19T00:23:51.705Z,948.01
2023-03-19T00:24:02.744Z,948.01
2023-03-19T00:24:13.733Z,948.01
2023-03-19T00:24:24.729Z,948.01
2023-03-19T00:24:35.745Z,948.01
2023-03-19T00:24:46.746Z,948.01
2023-03-19T00:24:57.714Z,948.01
2023-03-19T00:25:08.711Z,948.01
2023-03-19T00:25:19.705Z,948.01
2023-03-19T00:25:30.850Z,948.01
2023-03-19T00:25:42.764Z,948.00
2023-03-19T00:25:54.723Z,948.00
2023-03-19T00:26:05.723Z,948.00
2023-03-19T00:26:16.730Z,948.01
2023-03-19T00:26:27.706Z,948.01
2023-03-19T00:26:38.718Z,948.01
2023-03-19T00:26:49.699Z,948.01
2023-03-19T00:27:00.709Z,948.02
2023-03-19T00:27:11.710Z,948.02
2023-03-19T00:27:22.797Z,948.03
2023-03-19T00:27:34.762Z,948.03
2023-03-19T00:27:46.829Z,948.03
2023-03-19T00:27:57.712Z,948.03
2023-03-19T00:28:08.699Z,948.03
2023-03-19T00:28:19.697Z,948.03
2023-03-19T00:28:30.703Z,948.03
2023-03-19T00:28:41.792Z,948.04
2023-03-19T00:28:53.772Z,948.04
2023-03-19T00:29:05.747Z,948.04
2023-03-19T00:29:16.741Z,948.05
2023-03-19T00:29:27.733Z,948.05
2023-03-19T00:29:38.721Z,948.05
2023-03-19T00:29:49.742Z,948.05
2023-03-19T00:30:00.745Z,948.05
2023-03-19T00:30:11.752Z,948.05
2023-03-19T00:30:22.759Z,948.05
2023-03-19T00:30:33.772Z,948.05
2023-03-19T00:30:44.772Z,948.05
2023-03-19T00:30:56.807Z,948.06
2023-03-19T00:31:08.876Z,948.06
2023-03-19T00:31:20.762Z,948.06
2023-03-19T00:31:32.755Z,948.06
2023-03-19T00:31:44.716Z,948.06
2023-03-19T00:31:55.713Z,948.06
2023-03-19T00:32:06.774Z,948.06
2023-03-19T00:32:18.747Z,948.07
2023-03-19T00:32:29.910Z,948.07
2023-03-19T00:32:41.764Z,948.07
2023-03-19T00:32:53.763Z,948.08
2023-03-19T00:33:05.831Z,948.08
2023-03-19T00:33:16.772Z,948.08
2023-03-19T00:33:28.746Z,948.09
2023-03-19T00:33:39.737Z,948.09
2023-03-19T00:33:51.725Z,948.09
2023-03-19T00:34:02.725Z,948.09
2023-03-19T00:34:13.768Z,948.09
2023-03-19T00:34:24.756Z,948.09
2023-03-19T00:34:35.757Z,948.09
2023-03-19T00:34:47.749Z,948.09
2023-03-19T00:34:59.749Z,948.09
2023-03-19T00:35:10.743Z,948.09
2023-03-19T00:35:21.729Z,948.09
2023-03-19T00:35:33.055Z,948.09
2023-03-19T00:35:43.759Z,948.09
2023-03-19T00:35:55.770Z,948.10
2023-03-19T00:36:07.753Z,948.10
2023-03-19T00:36:19.724Z,948.10
2023-03-19T00:36:30.747Z,948.10
2023-03-19T00:36:42.754Z,948.10
2023-03-19T00:36:53.738Z,948.10
2023-03-19T00:37:04.747Z,948.10
2023-03-19T00:37:15.740Z,948.10
2023-03-19T00:37:26.746Z,948.10
2023-03-19T00:37:37.730Z,948.10
2023-03-19T00:37:48.738Z,948.11
2023-03-19T00:37:59.762Z,948.10
2023-03-19T00:38:10.750Z,948.10
2023-03-19T00:38:21.751Z,948.10
2023-03-19T00:38:33.728Z,948.10
2023-03-19T00:38:44.721Z,948.10
2023-03-19T00:38:55.712Z,948.09
2023-03-19T00:39:06.729Z,948.09
2023-03-19T00:39:17.706Z,948.09
2023-03-19T00:39:28.716Z,948.09
2023-03-19T00:39:39.736Z,948.09
2023-03-19T00:39:50.736Z,948.10
2023-03-19T00:40:01.776Z,948.09
2023-03-19T00:40:13.754Z,948.09
2023-03-19T00:40:24.737Z,948.09
2023-03-19T00:40:35.759Z,948.09
2023-03-19T00:40:47.755Z,948.09
2023-03-19T00:40:58.758Z,948.09
2023-03-19T00:41:09.758Z,948.09
2023-03-19T00:41:20.737Z,948.09
2023-03-19T00:41:31.732Z,948.09
2023-03-19T00:41:43.710Z,948.09
2023-03-19T00:41:54.723Z,948.09
2023-03-19T00:42:05.721Z,948.10
2023-03-19T00:42:16.712Z,948.10
2023-03-19T00:42:27.709Z,948.10
2023-03-19T00:42:38.702Z,948.09
2023-03-19T00:42:49.733Z,948.09
2023-03-19T00:43:00.728Z,948.09
2023-03-19T00:43:11.716Z,948.09
2023-03-19T00:43:22.714Z,948.09
2023-03-19T00:43:33.721Z,948.09
2023-03-19T00:43:44.712Z,948.08
2023-03-19T00:43:55.726Z,948.08
2023-03-19T00:44:06.731Z,948.08
2023-03-19T00:44:17.746Z,948.08
2023-03-19T00:44:28.723Z,948.08
2023-03-19T00:44:39.752Z,948.08
2023-03-19T00:44:51.728Z,948.08
2023-03-19T00:45:03.736Z,948.07
2023-03-19T00:45:14.729Z,948.07
2023-03-19T00:45:25.729Z,948.07
2023-03-19T00:45:36.749Z,948.07
2023-03-19T00:45:47.768Z,948.07
2023-03-19T00:45:59.780Z,948.06
2023-03-19T00:46:10.807Z,948.06
2023-03-19T00:46:21.810Z,948.06
2023-03-19T00:46:32.703Z,948.06
2023-03-19T00:46:43.739Z,948.05
2023-03-19T00:48:31.702Z,948.04
2023-03-19T00:48:42.792Z,948.03
2023-03-19T00:48:54.751Z,948.03
2023-03-19T00:49:05.750Z,948.03
2023-03-19T00:50:32.796Z,948.03
2023-03-19T00:50:44.754Z,948.03
2023-03-19T00:50:56.731Z,948.03
2023-03-19T00:51:07.741Z,948.02
2023-03-19T00:51:19.737Z,948.02
2023-03-19T00:51:30.751Z,948.02
2023-03-19T00:51:42.727Z,948.03
2023-03-19T00:51:54.720Z,948.03
2023-03-19T00:52:05.709Z,948.03
2023-03-19T00:52:16.705Z,948.03
2023-03-19T00:52:27.714Z,948.03
2023-03-19T00:52:38.706Z,948.03
2023-03-19T00:52:49.751Z,948.04
2023-03-19T00:53:01.735Z,948.03
2023-03-19T00:53:12.721Z,948.03
2023-03-19T00:53:23.790Z,948.04
2023-03-19T00:53:35.762Z,948.03
2023-03-19T00:53:47.768Z,948.03
2023-03-19T00:53:58.761Z,948.03
2023-03-19T00:54:09.771Z,948.03
2023-03-19T00:54:20.758Z,948.03
2023-03-19T00:54:31.777Z,948.04
2023-03-19T00:54:42.772Z,948.03
2023-03-19T00:54:54.736Z,948.04
2023-03-19T00:55:05.721Z,948.03
2023-03-19T00:55:16.735Z,948.04
2023-03-19T00:55:27.744Z,948.04
2023-03-19T00:55:38.760Z,948.04
2023-03-19T00:55:49.781Z,948.03
2023-03-19T00:56:00.762Z,948.04
2023-03-19T00:56:11.767Z,948.04
2023-03-19T00:56:22.762Z,948.04
2023-03-19T00:56:33.758Z,948.03
2023-03-19T00:56:44.745Z,948.04
2023-03-19T00:56:55.736Z,948.04
2023-03-19T00:57:06.719Z,948.03
2023-03-19T00:57:17.801Z,948.04
2023-03-19T00:57:29.754Z,948.04
2023-03-19T00:57:40.729Z,948.04
2023-03-19T00:57:51.738Z,948.04
2023-03-19T00:58:02.745Z,948.04
2023-03-19T00:58:14.844Z,948.04
2023-03-19T00:58:25.747Z,948.04
2023-03-19T00:58:36.745Z,948.04
2023-03-19T00:58:47.759Z,948.04
2023-03-19T00:58:59.743Z,948.05
2023-03-19T00:59:10.789Z,948.05
2023-03-19T00:59:21.769Z,948.05
2023-03-19T00:59:32.766Z,948.05
2023-03-19T00:59:43.770Z,948.05
2023-03-19T00:59:54.745Z,948.05
2023-03-19T01:00:05.770Z,948.05
2023-03-19T01:00:16.773Z,948.05
2023-03-19T01:00:28.752Z,948.05
2023-03-19T01:00:39.751Z,948.05
2023-03-19T01:00:50.721Z,948.05
2023-03-19T01:01:01.849Z,948.05
2023-03-19T01:01:13.791Z,948.05
2023-03-19T01:01:25.797Z,948.05
2023-03-19T01:01:36.925Z,948.05
2023-03-19T01:01:48.859Z,948.05
2023-03-19T01:02:00.750Z,948.06
2023-03-19T01:02:11.760Z,948.06
2023-03-19T01:02:22.755Z,948.06
2023-03-19T01:02:33.738Z,948.06
2023-03-19T01:02:44.771Z,948.06
2023-03-19T01:02:55.794Z,948.07
2023-03-19T01:03:06.725Z,948.07
2023-03-19T01:03:17.735Z,948.07
2023-03-19T01:03:28.738Z,948.07
2023-03-19T01:03:39.736Z,948.07
2023-03-19T01:03:50.716Z,948.07
2023-03-19T01:04:01.879Z,948.07
2023-03-19T01:04:12.776Z,948.07
2023-03-19T01:04:24.805Z,948.07
2023-03-19T01:04:36.874Z,948.07
2023-03-19T01:04:48.833Z,948.07
2023-03-19T01:05:00.756Z,948.07
2023-03-19T01:05:11.761Z,948.07
2023-03-19T01:05:22.748Z,948.07
2023-03-19T01:05:34.010Z,948.07
2023-03-19T01:05:44.721Z,948.06
2023-03-19T01:05:55.717Z,948.06
2023-03-19T01:06:06.758Z,948.07
2023-03-19T01:06:17.757Z,948.06
2023-03-19T01:06:46.362Z,948.06
2023-03-19T01:06:47.740Z,948.06
2023-03-19T01:07:00.569Z,948.06
2023-03-19T01:07:09.756Z,948.06
2023-03-19T01:07:20.732Z,948.06
2023-03-19T01:07:31.765Z,948.06
2023-03-19T01:07:42.756Z,948.05
2023-03-19T01:07:53.755Z,948.05
2023-03-19T01:08:04.779Z,948.05
2023-03-19T01:08:15.767Z,948.04
2023-03-19T01:08:26.770Z,948.04
2023-03-19T01:08:38.754Z,948.03
2023-03-19T01:08:49.750Z,948.03
2023-03-19T01:09:00.736Z,948.02
2023-03-19T01:09:11.768Z,948.02
2023-03-19T01:09:22.736Z,948.02
2023-03-19T01:09:33.731Z,948.01
2023-03-19T01:09:44.744Z,948.01
2023-03-19T01:09:55.742Z,948.01
2023-03-19T01:10:06.724Z,948.00
2023-03-19T01:10:17.716Z,948.00
2023-03-19T01:10:28.710Z,947.99
2023-03-19T01:10:39.802Z,947.99
2023-03-19T01:10:51.756Z,947.98
2023-03-19T01:11:02.762Z,947.98
2023-03-19T01:11:13.751Z,947.97
2023-03-19T01:11:25.758Z,947.97
2023-03-19T01:11:36.756Z,947.97
2023-03-19T01:11:47.739Z,947.96
2023-03-19T01:12:13.774Z,947.96
2023-03-19T01:12:14.733Z,947.96
2023-03-19T01:12:25.724Z,947.96
2023-03-19T01:12:36.729Z,947.96
2023-03-19T01:12:47.765Z,947.96
2023-03-19T01:12:58.758Z,947.96
2023-03-19T01:13:09.763Z,947.96
2023-03-19T01:13:20.770Z,947.96
2023-03-19T01:13:31.762Z,947.96
2023-03-19T01:13:42.759Z,947.96
2023-03-19T01:13:53.743Z,947.96
2023-03-19T01:14:04.752Z,947.97
2023-03-19T01:14:15.741Z,947.97
2023-03-19T01:14:27.738Z,947.97
2023-03-19T01:14:38.714Z,947.97
2023-03-19T01:14:49.797Z,947.97
2023-03-19T01:15:01.730Z,947.97
2023-03-19T01:15:12.727Z,947.97
2023-03-19T01:15:23.714Z,947.97
2023-03-19T01:15:34.816Z,947.96
2023-03-19T01:15:46.804Z,947.96
2023-03-19T01:15:58.713Z,947.96
2023-03-19T01:16:09.743Z,947.96
2023-03-19T01:16:20.733Z,947.97
2023-03-19T01:16:31.707Z,947.96
2023-03-19T01:16:42.792Z,947.96
2023-03-19T01:16:54.748Z,947.97
2023-03-19T01:17:05.751Z,947.97
2023-03-19T01:17:16.757Z,947.97
2023-03-19T01:17:27.747Z,947.97
2023-03-19T01:17:39.714Z,947.97
2023-03-19T01:17:50.749Z,947.97
2023-03-19T01:18:01.753Z,947.97
2023-03-19T01:18:12.753Z,947.97
2023-03-19T01:18:31.749Z,947.97
2023-03-19T01:18:36.777Z,947.97
2023-03-19T01:18:48.740Z,947.97
2023-03-19T01:18:59.726Z,947.97
2023-03-19T01:19:10.712Z,947.97
2023-03-19T01:19:21.986Z,947.97
2023-03-19T01:19:33.747Z,947.97
2023-03-19T01:19:51.747Z,947.97
2023-03-19T01:19:56.758Z,947.97
2023-03-19T01:20:07.753Z,947.97
2023-03-19T01:20:18.763Z,947.97
2023-03-19T01:20:29.763Z,947.97
2023-03-19T01:20:52.768Z,947.97
2023-03-19T01:20:53.746Z,947.97
2023-03-19T01:21:04.734Z,947.97
2023-03-19T01:21:15.728Z,947.97
2023-03-19T01:21:26.730Z,947.96
2023-03-19T01:21:37.727Z,947.96
2023-03-19T01:21:48.723Z,947.96
2023-03-19T01:21:59.742Z,947.96
2023-03-19T01:22:10.748Z,947.96
2023-03-19T01:22:21.741Z,947.96
2023-03-19T01:22:34.391Z,947.96
2023-03-19T01:22:43.945Z,947.96
2023-03-19T01:22:55.796Z,947.96
2023-03-19T01:23:07.776Z,947.96
2023-03-19T01:23:18.765Z,947.96
2023-03-19T01:23:29.766Z,947.96
2023-03-19T01:23:40.751Z,947.96
2023-03-19T01:23:51.737Z,947.96
2023-03-19T01:24:02.775Z,947.96
2023-03-19T01:24:14.765Z,947.96
2023-03-19T01:24:26.738Z,947.96
2023-03-19T01:24:37.745Z,947.96
2023-03-19T01:24:48.756Z,947.96
2023-03-19T01:25:00.760Z,947.96
2023-03-19T01:25:11.745Z,947.96
2023-03-19T01:25:22.763Z,947.96
2023-03-19T01:25:33.763Z,947.96
2023-03-19T01:25:44.754Z,947.96
2023-03-19T01:25:55.753Z,947.95
2023-03-19T01:26:06.782Z,947.96
2023-03-19T01:26:17.759Z,947.96
2023-03-19T01:26:28.774Z,947.96
2023-03-19T01:26:39.743Z,947.96
2023-03-19T01:26:50.733Z,947.96
2023-03-19T01:27:01.726Z,947.96
2023-03-19T01:27:12.703Z,947.96
2023-03-19T01:27:23.709Z,947.96
2023-03-19T01:27:34.814Z,947.96
2023-03-19T01:27:46.756Z,947.96
2023-03-19T01:27:57.759Z,947.96
2023-03-19T01:28:08.763Z,947.96
2023-03-19T01:28:19.775Z,947.96
2023-03-19T01:28:30.764Z,947.96
2023-03-19T01:28:41.801Z,947.96
2023-03-19T01:28:53.786Z,947.96
2023-03-19T01:29:05.725Z,947.96
2023-03-19T01:29:16.712Z,947.96
2023-03-19T01:29:27.723Z,947.95
2023-03-19T01:29:38.710Z,947.95
2023-03-19T01:29:49.816Z,947.96
2023-03-19T01:30:01.807Z,947.95
2023-03-19T01:30:13.764Z,947.95
2023-03-19T01:30:25.755Z,947.96
2023-03-19T01:30:36.755Z,947.95
2023-03-19T01:30:47.765Z,947.95
2023-03-19T01:30:58.828Z,947.96
2023-03-19T01:31:09.816Z,947.96
2023-03-19T01:31:20.841Z,947.96
2023-03-19T01:31:31.824Z,947.96
2023-03-19T01:31:42.737Z,947.97
2023-03-19T01:31:53.731Z,947.96
2023-03-19T01:32:04.711Z,947.97
2023-03-19T01:32:15.750Z,947.97
2023-03-19T01:32:26.746Z,947.97
2023-03-19T01:32:37.751Z,947.97
2023-03-19T01:32:48.787Z,947.97
2023-03-19T01:33:00.832Z,947.97
2023-03-19T01:33:11.845Z,947.97
2023-03-19T01:33:25.563Z,947.97
2023-03-19T01:33:34.747Z,947.97
2023-03-19T01:33:45.752Z,947.97
2023-03-19T01:33:57.751Z,947.97
2023-03-19T01:34:08.745Z,947.97
2023-03-19T01:34:19.734Z,947.97
2023-03-19T01:34:30.732Z,947.97
2023-03-19T01:34:41.717Z,947.97
2023-03-19T01:34:52.715Z,947.97
2023-03-19T01:35:03.800Z,947.97
2023-03-19T01:35:15.761Z,947.97
2023-03-19T01:35:26.747Z,947.97
2023-03-19T01:35:37.775Z,947.97
2023-03-19T01:35:49.828Z,947.96
2023-03-19T01:36:00.772Z,947.96
2023-03-19T01:36:12.771Z,947.96
2023-03-19T01:36:23.749Z,947.96
2023-03-19T01:36:34.746Z,947.96
2023-03-19T01:36:45.748Z,947.95
2023-03-19T01:36:57.744Z,947.96
2023-03-19T01:37:08.744Z,947.96
2023-03-19T01:37:20.747Z,947.95
2023-03-19T01:37:32.743Z,947.95
2023-03-19T01:37:43.782Z,947.95
2023-03-19T01:37:54.766Z,947.95
2023-03-19T01:38:05.792Z,947.95
2023-03-19T01:38:17.745Z,947.95
2023-03-19T01:38:28.738Z,947.95
2023-03-19T01:38:39.735Z,947.95
2023-03-19T01:38:50.751Z,947.95
2023-03-19T01:39:01.748Z,947.95
2023-03-19T01:39:13.737Z,947.95
2023-03-19T01:39:24.718Z,947.95
2023-03-19T01:39:35.797Z,947.95
2023-03-19T01:39:47.772Z,947.95
2023-03-19T01:39:59.737Z,947.95
2023-03-19T01:40:10.732Z,947.95
2023-03-19T01:40:21.722Z,947.95
2023-03-19T01:40:33.045Z,947.95
2023-03-19T01:40:44.802Z,947.95
2023-03-19T01:40:56.768Z,947.95
2023-03-19T01:41:07.761Z,947.95
2023-03-19T01:41:19.740Z,947.95
2023-03-19T01:41:30.741Z,947.95
2023-03-19T01:41:41.790Z,947.94
2023-03-19T01:41:53.749Z,947.95
2023-03-19T01:42:04.763Z,947.95
2023-03-19T01:42:16.746Z,947.94
2023-03-19T01:42:27.742Z,947.95
2023-03-19T01:42:38.757Z,947.95
2023-03-19T01:42:50.752Z,947.95
2023-03-19T01:43:01.739Z,947.95
2023-03-19T01:43:12.741Z,947.94
2023-03-19T01:43:23.724Z,947.95
2023-03-19T01:43:34.742Z,947.95
2023-03-19T01:43:45.724Z,947.95
2023-03-19T01:43:56.761Z,947.95
2023-03-19T01:44:08.725Z,947.95
2023-03-19T01:44:19.717Z,947.95
2023-03-19T01:44:30.807Z,947.95
2023-03-19T01:44:42.769Z,947.95
2023-03-19T01:44:54.745Z,947.94
2023-03-19T01:45:05.763Z,947.94
2023-03-19T01:45:16.762Z,947.94
2023-03-19T01:45:27.751Z,947.94
2023-03-19T01:45:38.772Z,947.94
2023-03-19T01:45:51.382Z,947.94
2023-03-19T01:46:01.823Z,947.94
2023-03-19T01:46:12.836Z,947.94
2023-03-19T01:46:24.761Z,947.94
2023-03-19T01:46:36.775Z,947.94
2023-03-19T01:46:47.846Z,947.94
2023-03-19T01:46:58.748Z,947.94
2023-03-19T01:47:10.729Z,947.94
2023-03-19T01:47:21.723Z,947.94
2023-03-19T01:47:32.716Z,947.94
2023-03-19T01:47:43.717Z,947.93
2023-03-19T01:47:54.727Z,947.93
2023-03-19T01:48:05.749Z,947.94
2023-03-19T01:48:16.735Z,947.93
2023-03-19T01:48:27.766Z,947.93
2023-03-19T01:48:39.767Z,947.93
2023-03-19T01:48:50.834Z,947.93
2023-03-19T01:49:01.749Z,947.93
2023-03-19T01:49:12.745Z,947.93
2023-03-19T01:49:23.738Z,947.93
2023-03-19T01:49:34.728Z,947.93
2023-03-19T01:49:45.715Z,947.92
2023-03-19T01:49:56.815Z,947.93
2023-03-19T01:50:08.804Z,947.93
2023-03-19T01:50:20.770Z,947.93
2023-03-19T01:50:32.032Z,947.93
2023-03-19T01:50:42.761Z,947.93
2023-03-19T01:50:53.781Z,947.93
2023-03-19T01:51:05.741Z,947.93
2023-03-19T01:51:16.718Z,947.93
2023-03-19T01:51:27.740Z,947.93
2023-03-19T01:51:38.729Z,947.93
2023-03-19T01:51:49.741Z,947.92
2023-03-19T01:52:00.721Z,947.92
2023-03-19T01:52:11.717Z,947.92
2023-03-19T01:52:22.720Z,947.91
2023-03-19T01:52:33.714Z,947.91
2023-03-19T01:52:44.720Z,947.91
2023-03-19T01:52:55.712Z,947.91
2023-03-19T01:53:06.730Z,947.91
2023-03-19T01:53:17.714Z,947.91
2023-03-19T01:53:28.804Z,947.91
2023-03-19T01:53:40.768Z,947.91
2023-03-19T01:53:51.752Z,947.92
2023-03-19T01:54:02.731Z,947.92
2023-03-19T01:54:13.720Z,947.92
2023-03-19T01:54:24.723Z,947.91
2023-03-19T01:54:35.726Z,947.91
2023-03-19T01:54:46.774Z,947.91
2023-03-19T01:54:57.754Z,947.91
2023-03-19T01:55:08.735Z,947.91
2023-03-19T01:55:19.739Z,947.91
2023-03-19T01:55:30.720Z,947.91
2023-03-19T01:55:41.734Z,947.91
2023-03-19T01:55:52.746Z,947.91
2023-03-19T01:56:03.752Z,947.91
2023-03-19T01:56:14.749Z,947.91
2023-03-19T01:56:25.752Z,947.90
2023-03-19T01:56:36.736Z,947.90
2023-03-19T01:56:48.739Z,947.91
2023-03-19T01:56:59.736Z,947.90
2023-03-19T01:57:10.801Z,947.90
2023-03-19T01:57:22.759Z,947.90
2023-03-19T01:57:34.734Z,947.90
2023-03-19T01:57:45.734Z,947.90
2023-03-19T01:57:56.765Z,947.90
2023-03-19T01:58:07.779Z,947.90
2023-03-19T01:58:19.738Z,947.89
2023-03-19T01:58:30.703Z,947.90
2023-03-19T01:58:41.719Z,947.90
2023-03-19T01:58:52.736Z,947.90
2023-03-19T01:59:03.726Z,947.90
2023-03-19T01:59:14.700Z,947.90
2023-03-19T01:59:25.804Z,947.90
2023-03-19T01:59:37.751Z,947.90
2023-03-19T01:59:48.762Z,947.90
2023-03-19T02:00:00.656Z,947.90
2023-03-19T02:00:11.774Z,947.90
2023-03-19T02:00:22.756Z,947.90
2023-03-19T02:00:35.023Z,947.90
2023-03-19T02:00:46.752Z,947.90
2023-03-19T02:00:57.724Z,947.90
2023-03-19T02:01:08.746Z,947.91
2023-03-19T02:01:19.758Z,947.91
2023-03-19T02:01:30.820Z,947.91
2023-03-19T02:01:41.804Z,947.91
2023-03-19T02:01:52.820Z,947.91
2023-03-19T02:02:03.743Z,947.91
2023-03-19T02:02:14.729Z,947.91
2023-03-19T02:02:25.729Z,947.91
2023-03-19T02:02:36.707Z,947.91
2023-03-19T02:02:47.764Z,947.92
2023-03-19T02:02:58.747Z,947.92
2023-03-19T02:03:09.734Z,947.91
2023-03-19T02:03:20.767Z,947.92
2023-03-19T02:03:31.769Z,947.92
2023-03-19T02:03:42.746Z,947.92
2023-03-19T02:03:54.748Z,947.93
2023-03-19T02:04:05.784Z,947.93
2023-03-19T02:04:16.909Z,947.93
2023-03-19T02:04:28.784Z,947.93
2023-03-19T02:04:40.778Z,947.93
2023-03-19T02:04:52.786Z,947.93
2023-03-19T02:05:03.755Z,947.93
2023-03-19T02:05:14.739Z,947.93
2023-03-19T02:05:25.817Z,947.93
2023-03-19T02:05:36.771Z,947.93
2023-03-19T02:05:48.758Z,947.93
2023-03-19T02:05:59.743Z,947.93
2023-03-19T02:06:10.745Z,947.93
2023-03-19T02:06:21.730Z,947.94
2023-03-19T02:06:32.730Z,947.93
2023-03-19T02:06:43.748Z,947.93
2023-03-19T02:06:54.735Z,947.93
2023-03-19T02:07:05.737Z,947.93
2023-03-19T02:07:16.726Z,947.93
2023-03-19T02:07:27.746Z,947.93
2023-03-19T02:07:38.740Z,947.93
2023-03-19T02:07:49.722Z,947.93
2023-03-19T02:08:00.734Z,947.93
2023-03-19T02:08:11.720Z,947.93
2023-03-19T02:08:22.808Z,947.93
2023-03-19T02:08:34.753Z,947.94
2023-03-19T02:08:45.756Z,947.94
2023-03-19T02:08:57.735Z,947.94
2023-03-19T02:09:08.745Z,947.94
2023-03-19T02:09:19.737Z,947.93
2023-03-19T02:09:30.750Z,947.93
2023-03-19T02:09:41.752Z,947.93
2023-03-19T02:09:53.723Z,947.93
2023-03-19T02:12:26.136Z,947.93
2023-03-19T02:12:37.747Z,947.92
2023-03-19T02:12:49.740Z,947.92
2023-03-19T02:13:00.752Z,947.92
2023-03-19T02:13:11.844Z,947.92
2023-03-19T02:13:23.768Z,947.92
2023-03-19T02:13:35.743Z,947.92
2023-03-19T02:13:46.730Z,947.91
2023-03-19T02:13:57.714Z,947.91
2023-03-19T02:14:08.740Z,947.91
2023-03-19T02:14:19.724Z,947.91
2023-03-19T02:14:30.738Z,947.90
2023-03-19T02:14:41.732Z,947.90
2023-03-19T02:14:52.736Z,947.90
2023-03-19T02:15:03.736Z,947.90
2023-03-19T02:15:14.739Z,947.90
2023-03-19T02:15:25.742Z,947.89
2023-03-19T02:15:36.734Z,947.89
2023-03-19T02:15:47.815Z,947.88
2023-03-19T02:15:59.761Z,947.89
2023-03-19T02:16:10.721Z,947.89
2023-03-19T02:16:21.833Z,947.88
2023-03-19T02:16:33.750Z,947.88
2023-03-19T02:16:44.686Z,947.89
2023-03-19T02:16:55.783Z,947.88
2023-03-19T02:17:07.741Z,947.89
2023-03-19T02:17:19.713Z,947.89
2023-03-19T02:17:30.706Z,947.89
2023-03-19T02:17:41.706Z,947.88
2023-03-19T02:17:52.692Z,947.89
2023-03-19T02:18:03.769Z,947.89
2023-03-19T02:18:15.880Z,947.89
2023-03-19T02:18:27.747Z,947.89
2023-03-19T02:18:38.732Z,947.88
2023-03-19T02:18:50.713Z,947.88
2023-03-19T02:19:01.707Z,947.88
2023-03-19T02:19:12.689Z,947.88
2023-03-19T02:19:23.682Z,947.88
2023-03-19T02:19:34.707Z,947.88
2023-03-19T02:19:45.712Z,947.88
2023-03-19T02:19:56.685Z,947.88
2023-03-19T02:20:07.684Z,947.88
2023-03-19T02:20:18.704Z,947.88
2023-03-19T02:20:29.696Z,947.88
2023-03-19T02:20:40.698Z,947.88
2023-03-19T02:20:51.686Z,947.88
2023-03-19T02:21:02.693Z,947.88
2023-03-19T02:21:13.701Z,947.88
2023-03-19T02:21:24.681Z,947.89
2023-03-19T02:21:35.687Z,947.88
2023-03-19T02:21:46.698Z,947.89
2023-03-19T02:21:57.687Z,947.89
2023-03-19T02:22:08.691Z,947.89
2023-03-19T02:22:19.681Z,947.89
2023-03-19T02:22:30.669Z,947.89
2023-03-19T02:22:41.785Z,947.89
2023-03-19T02:22:53.690Z,947.89
2023-03-19T02:23:04.712Z,947.89
2023-03-19T02:23:15.726Z,947.89
2023-03-19T02:23:26.713Z,947.89
2023-03-19T02:23:37.725Z,947.90
2023-03-19T02:23:48.724Z,947.90
2023-03-19T02:23:59.728Z,947.89
2023-03-19T02:24:10.725Z,947.89
2023-03-19T02:24:22.718Z,947.90
2023-03-19T02:24:33.715Z,947.89
2023-03-19T02:24:44.708Z,947.89
2023-03-19T02:24:55.709Z,947.89
2023-03-19T02:25:06.682Z,947.89
2023-03-19T02:25:17.780Z,947.89
2023-03-19T02:25:29.743Z,947.89